Time;durP1;ratioP1;P1;durP2;ratioP2;P2;SDS_P1;SDS_P2;PMS_P1;PMS_P2;Temp;Humidity;BMP_temperature;BMP_pressure;BME280_temperature;BME280_humidity;BME280_pressure;Samples;Min_cycle;Max_cycle;Signal;HPM_P1;HPM_P2
2023/10/03 00:00:49;;;;;;;13.85;7.32;;;;;;;;;;5034624;28;20443;-75
2023/10/03 00:03:17;;;;;;;14.80;7.40;;;;;;;;;;5032405;28;20065;-75
2023/10/03 00:05:46;;;;;;;15.20;7.00;;;;;;;;;;5023951;28;20050;-74
2023/10/03 00:08:13;;;;;;;;;;;;;;;;;;5040457;28;20496;-74
2023/10/03 00:10:40;;;;;;;13.85;7.32;;;;;;;;;;5021921;28;19921;-75
2023/10/03 00:13:08;;;;;;;13.60;6.45;;;;;;;;;;5030641;28;20049;-75
2023/10/03 00:15:36;;;;;;;14.60;7.55;;;;;;;;;;5026962;28;20046;-74
2023/10/03 00:18:03;;;;;;;13.80;7.32;;;;;;;;;;5018237;28;20061;-75
2023/10/03 00:20:30;;;;;;;18.30;6.93;;;;;;;;;;5025779;28;20050;-75
2023/10/03 00:22:59;;;;;;;11.13;6.20;;;;;;;;;;5033917;28;20053;-75
2023/10/03 00:25:26;;;;;;;12.43;6.63;;;;;;;;;;5017711;28;20053;-75
2023/10/03 00:27:54;;;;;;;14.10;6.70;;;;;;;;;;5024043;28;20064;-76
2023/10/03 00:30:23;;;;;;;14.07;6.13;;;;;;;;;;5026920;28;20056;-75
2023/10/03 00:32:51;;;;;;;12.90;7.13;;;;;;;;;;5027824;28;20049;-76
2023/10/03 00:35:19;;;;;;;16.08;7.15;;;;;;;;;;5030563;28;20073;-76
2023/10/03 00:37:46;;;;;;;12.32;6.53;;;;;;;;;;5014384;28;20054;-75
2023/10/03 00:40:25;;;;;;;13.43;7.18;;;;;;;;;;5017609;28;20056;-76
2023/10/03 00:42:52;;;;;;;17.27;7.47;;;;;;;;;;5037674;28;20525;-76
2023/10/03 00:45:21;;;;;;;12.45;7.20;;;;;;;;;;5028857;28;20056;-76
2023/10/03 00:47:48;;;;;;;13.80;6.25;;;;;;;;;;5025980;28;20057;-76
2023/10/03 00:50:19;;;;;;;10.95;6.30;;;;;;;;;;5039193;28;20053;-76
2023/10/03 00:52:47;;;;;;;17.08;6.90;;;;;;;;;;5022245;28;20506;-76
2023/10/03 00:55:15;;;;;;;11.07;6.93;;;;;;;;;;5013398;28;20058;-76
2023/10/03 00:57:44;;;;;;;11.63;6.25;;;;;;;;;;5028468;28;20049;-76
2023/10/03 01:00:15;;;;;;;15.50;7.38;;;;;;;;;;5029889;28;20135;-76
2023/10/03 01:02:49;;;;;;;14.00;6.50;;;;;;;;;;5025617;28;20388;-76
2023/10/03 01:05:16;;;;;;;14.25;7.40;;;;;;;;;;5033088;28;20049;-77
2023/10/03 01:07:44;;;;;;;15.05;6.97;;;;;;;;;;5020503;28;20057;-75
2023/10/03 01:10:12;;;;;;;10.40;5.93;;;;;;;;;;5031898;28;20060;-76
2023/10/03 01:12:39;;;;;;;17.17;7.18;;;;;;;;;;5032535;28;20054;-76
2023/10/03 01:15:15;;;;;;;13.63;6.22;;;;;;;;;;5019667;28;20050;-76
2023/10/03 01:17:44;;;;;;;15.07;7.35;;;;;;;;;;5041907;28;20065;-77
2023/10/03 01:20:17;;;;;;;15.00;6.72;;;;;;;;;;5034612;28;20053;-76
2023/10/03 01:22:45;;;;;;;13.73;6.60;;;;;;;;;;5031375;28;20054;-75
2023/10/03 01:25:14;;;;;;;13.65;6.68;;;;;;;;;;5032189;28;20061;-75
2023/10/03 01:27:41;;;;;;;12.43;6.47;;;;;;;;;;5025286;28;20426;-76
2023/10/03 01:30:08;;;;;;;11.90;5.88;;;;;;;;;;5024218;28;20046;-75
2023/10/03 01:32:37;;;;;;;12.32;6.63;;;;;;;;;;5030563;28;20060;-76
2023/10/03 01:35:07;;;;;;;11.60;6.73;;;;;;;;;;5017582;28;20103;-75
2023/10/03 01:37:34;;;;;;;15.13;6.30;;;;;;;;;;5012898;28;20050;-76
2023/10/03 01:40:01;;;;;;;14.50;7.43;;;;;;;;;;5030115;28;20045;-75
2023/10/03 01:42:29;;;;;;;15.23;6.97;;;;;;;;;;5027499;28;20057;-75
2023/10/03 01:44:56;;;;;;;15.82;7.13;;;;;;;;;;5020766;28;20046;-75
2023/10/03 01:47:24;;;;;;;12.82;6.03;;;;;;;;;;5028484;28;20055;-75
2023/10/03 01:49:51;;;;;;;13.85;6.40;;;;;;;;;;5032703;28;20053;-76
2023/10/03 01:52:19;;;;;;;12.38;6.35;;;;;;;;;;5026293;28;20053;-75
2023/10/03 01:54:46;;;;;;;17.67;7.03;;;;;;;;;;5024873;28;20414;-75
2023/10/03 01:57:13;;;;;;;11.77;6.50;;;;;;;;;;5015848;28;20053;-75
2023/10/03 01:59:41;;;;;;;12.80;6.55;;;;;;;;;;5026956;28;20048;-75
2023/10/03 02:02:08;;;;;;;15.50;6.63;;;;;;;;;;5019999;28;20049;-74
2023/10/03 02:04:35;;;;;;;13.98;7.10;;;;;;;;;;5023221;28;20414;-75
2023/10/03 02:07:02;;;;;;;15.95;7.50;;;;;;;;;;5019956;28;20057;-75
2023/10/03 02:09:29;;;;;;;12.68;6.05;;;;;;;;;;5028506;28;20060;-76
2023/10/03 02:11:59;;;;;;;16.92;6.68;;;;;;;;;;5029502;28;20050;-75
2023/10/03 02:14:28;;;;;;;14.02;6.97;;;;;;;;;;5023919;28;20057;-75
2023/10/03 02:16:57;;;;;;;12.23;6.18;;;;;;;;;;5024354;28;20068;-75
2023/10/03 02:19:24;;;;;;;11.93;6.10;;;;;;;;;;5024328;28;20065;-75
2023/10/03 02:21:59;;;;;;;11.70;5.72;;;;;;;;;;5027998;28;20352;-74
2023/10/03 02:24:25;;;;;;;16.60;6.85;;;;;;;;;;5030033;28;20064;-76
2023/10/03 02:26:52;;;;;;;12.00;7.03;;;;;;;;;;5041178;28;20055;-75
2023/10/03 02:29:20;;;;;;;15.77;7.80;;;;;;;;;;5023832;28;20045;-74
2023/10/03 02:31:47;;;;;;;12.93;6.15;;;;;;;;;;5017121;28;20410;-75
2023/10/03 02:34:16;;;;;;;13.68;7.00;;;;;;;;;;5025462;28;20064;-75
2023/10/03 02:36:48;;;;;;;12.95;6.57;;;;;;;;;;5028171;28;20467;-75
2023/10/03 02:39:19;;;;;;;14.27;5.32;;;;;;;;;;5022867;28;20053;-75
2023/10/03 02:41:46;;;;;;;10.07;5.93;;;;;;;;;;5019056;28;20058;-76
2023/10/03 02:44:15;;;;;;;11.98;6.15;;;;;;;;;;5018130;28;20054;-75
2023/10/03 02:46:42;;;;;;;12.68;6.65;;;;;;;;;;5034836;28;20056;-75
2023/10/03 02:49:10;;;;;;;14.07;6.97;;;;;;;;;;5021629;28;20383;-75
2023/10/03 02:51:38;;;;;;;12.73;5.47;;;;;;;;;;5034870;28;20049;-76
2023/10/03 02:54:06;;;;;;;10.82;5.05;;;;;;;;;;5036867;28;20048;-75
2023/10/03 02:56:32;;;;;;;12.32;6.85;;;;;;;;;;5020610;28;20060;-77
2023/10/03 02:58:59;;;;;;;12.48;6.10;;;;;;;;;;5025040;28;20045;-75
2023/10/03 03:01:26;;;;;;;10.27;5.70;;;;;;;;;;5031378;28;20061;-75
2023/10/03 03:03:54;;;;;;;12.27;6.05;;;;;;;;;;5029612;28;20061;-75
2023/10/03 03:06:22;;;;;;;12.90;6.05;;;;;;;;;;5031747;28;20053;-75
2023/10/03 03:08:52;;;;;;;13.93;6.60;;;;;;;;;;5040361;28;20049;-75
2023/10/03 03:11:19;;;;;;;11.25;5.95;;;;;;;;;;5013755;28;20488;-75
2023/10/03 03:13:46;;;;;;;10.35;5.57;;;;;;;;;;5012468;28;20050;-75
2023/10/03 03:16:14;;;;;;;10.90;6.28;;;;;;;;;;5020239;28;20371;-75
2023/10/03 03:18:41;;;;;;;11.55;5.53;;;;;;;;;;5032473;28;20053;-75
2023/10/03 03:21:10;;;;;;;15.45;6.43;;;;;;;;;;5029841;28;20046;-74
2023/10/03 03:23:38;;;;;;;12.23;5.90;;;;;;;;;;5020536;28;20415;-75
2023/10/03 03:26:20;;;;;;;10.98;5.57;;;;;;;;;;5034417;28;20053;-76
2023/10/03 03:28:49;;;;;;;10.43;5.53;;;;;;;;;;5031446;28;20479;-75
2023/10/03 03:31:21;;;;;;;11.45;5.45;;;;;;;;;;5027968;28;20052;-75
2023/10/03 03:33:49;;;;;;;11.45;6.18;;;;;;;;;;5038708;28;20045;-75
2023/10/03 03:36:17;;;;;;;9.43;5.45;;;;;;;;;;5026154;28;20057;-75
2023/10/03 03:38:44;;;;;;;10.73;5.40;;;;;;;;;;5028842;28;20426;-75
2023/10/03 03:41:13;;;;;;;11.13;6.32;;;;;;;;;;5037243;28;20052;-75
2023/10/03 03:43:39;;;;;;;10.47;5.00;;;;;;;;;;5021985;28;20050;-75
2023/10/03 03:46:08;;;;;;;9.68;5.88;;;;;;;;;;5021361;28;20476;-76
2023/10/03 03:48:36;;;;;;;10.13;5.88;;;;;;;;;;5043307;28;20410;-75
2023/10/03 03:51:05;;;;;;;8.77;4.68;;;;;;;;;;5033974;28;20052;-75
2023/10/03 03:53:32;;;;;;;10.18;5.88;;;;;;;;;;5034255;28;20494;-75
2023/10/03 03:55:59;;;;;;;10.65;5.55;;;;;;;;;;5025330;28;20057;-75
2023/10/03 03:58:28;;;;;;;11.77;5.53;;;;;;;;;;5019005;28;20053;-75
2023/10/03 04:00:57;;;;;;;10.70;4.85;;;;;;;;;;5023000;28;20045;-76
2023/10/03 04:03:26;;;;;;;12.50;5.50;;;;;;;;;;5036226;28;20046;-77
2023/10/03 04:05:53;;;;;;;;;;;;;;;;;;5027266;28;20049;-75
2023/10/03 04:08:19;;;;;;;12.00;5.45;;;;;;;;;;5025983;28;19928;-76
2023/10/03 04:10:46;;;;;;;9.35;4.38;;;;;;;;;;5038910;28;20056;-76
2023/10/03 04:13:16;;;;;;;11.23;6.22;;;;;;;;;;5036446;28;20053;-76
2023/10/03 04:15:45;;;;;;;10.80;5.72;;;;;;;;;;5026568;28;20049;-76
2023/10/03 04:18:14;;;;;;;12.57;6.10;;;;;;;;;;5041178;28;20053;-76
2023/10/03 04:20:44;;;;;;;10.07;5.00;;;;;;;;;;5034488;28;20076;-76
2023/10/03 04:23:11;;;;;;;10.65;5.50;;;;;;;;;;5018240;28;20057;-76
2023/10/03 04:25:39;;;;;;;12.38;4.85;;;;;;;;;;5022839;28;20061;-77
2023/10/03 04:28:07;;;;;;;11.52;5.18;;;;;;;;;;5015632;28;20050;-76
2023/10/03 04:30:34;;;;;;;11.52;5.68;;;;;;;;;;5028390;28;20435;-76
2023/10/03 04:33:02;;;;;;;12.02;5.25;;;;;;;;;;5014305;28;20041;-76
2023/10/03 04:35:29;;;;;;;7.63;4.82;;;;;;;;;;5034500;28;20057;-75
2023/10/03 04:37:57;;;;;;;8.15;4.68;;;;;;;;;;5034274;28;20501;-75
2023/10/03 04:40:27;;;;;;;12.45;5.65;;;;;;;;;;5029501;28;20050;-77
2023/10/03 04:42:55;;;;;;;9.80;5.45;;;;;;;;;;5023274;28;20413;-76
2023/10/03 04:45:22;;;;;;;10.77;4.80;;;;;;;;;;5034638;28;20698;-76
2023/10/03 04:47:49;;;;;;;8.23;4.65;;;;;;;;;;5026328;28;20064;-75
2023/10/03 04:50:18;;;;;;;13.25;4.93;;;;;;;;;;5027974;28;20054;-74
2023/10/03 04:52:48;;;;;;;;;;;;;;;;;;5024336;28;20060;-74
2023/10/03 04:55:16;;;;;;;8.65;4.65;;;;;;;;;;5029084;28;19921;-75
2023/10/03 04:57:43;;;;;;;9.63;5.40;;;;;;;;;;5039982;28;20058;-75
2023/10/03 05:00:11;;;;;;;9.13;4.68;;;;;;;;;;5016649;28;20050;-75
2023/10/03 05:02:39;;;;;;;10.75;5.10;;;;;;;;;;5031620;28;20057;-75
2023/10/03 05:05:06;;;;;;;11.57;5.50;;;;;;;;;;5032489;28;20045;-75
2023/10/03 05:07:34;;;;;;;12.48;5.97;;;;;;;;;;5029531;28;20053;-77
2023/10/03 05:10:03;;;;;;;8.25;4.30;;;;;;;;;;5034099;28;20049;-77
2023/10/03 05:12:30;;;;;;;14.20;5.53;;;;;;;;;;5018340;28;20053;-77
2023/10/03 05:14:56;;;;;;;17.58;4.80;;;;;;;;;;5023596;28;20057;-78
2023/10/03 05:17:25;;;;;;;8.77;3.83;;;;;;;;;;5022826;28;20486;-78
2023/10/03 05:19:52;;;;;;;8.35;4.43;;;;;;;;;;5021322;28;20060;-77
2023/10/03 05:22:19;;;;;;;11.40;5.07;;;;;;;;;;5022006;28;20045;-76
2023/10/03 05:24:49;;;;;;;7.93;4.00;;;;;;;;;;5038078;28;20426;-76
2023/10/03 05:27:16;;;;;;;8.30;4.60;;;;;;;;;;5013654;28;20050;-77
2023/10/03 05:29:43;;;;;;;9.68;4.72;;;;;;;;;;5025753;28;20505;-77
2023/10/03 05:32:10;;;;;;;7.80;5.10;;;;;;;;;;5030332;28;20052;-77
2023/10/03 05:34:37;;;;;;;9.02;4.57;;;;;;;;;;5035895;28;20045;-76
2023/10/03 05:37:04;;;;;;;11.32;4.82;;;;;;;;;;5028383;28;20065;-76
2023/10/03 05:39:31;;;;;;;9.35;4.93;;;;;;;;;;5031184;28;20064;-76
2023/10/03 05:42:00;;;;;;;8.65;4.53;;;;;;;;;;5034578;28;20050;-77
2023/10/03 05:44:27;;;;;;;11.57;5.43;;;;;;;;;;5032167;28;20050;-75
2023/10/03 05:46:55;;;;;;;9.40;4.40;;;;;;;;;;5026524;28;20064;-76
2023/10/03 05:49:23;;;;;;;7.93;4.60;;;;;;;;;;5016457;28;20418;-76
2023/10/03 05:51:51;;;;;;;7.72;4.18;;;;;;;;;;5025640;28;20050;-78
2023/10/03 05:54:18;;;;;;;9.55;4.28;;;;;;;;;;5029116;28;20058;-78
2023/10/03 05:56:45;;;;;;;9.77;4.72;;;;;;;;;;5015288;28;20064;-76
2023/10/03 05:59:14;;;;;;;7.70;5.53;;;;;;;;;;5021947;28;20478;-76
2023/10/03 06:01:42;;;;;;;8.98;4.28;;;;;;;;;;5023166;28;20428;-77
2023/10/03 06:04:09;;;;;;;9.57;4.18;;;;;;;;;;5023667;28;20060;-77
2023/10/03 06:06:35;;;;;;;8.80;4.50;;;;;;;;;;5025935;28;20053;-76
2023/10/03 06:09:03;;;;;;;9.70;4.40;;;;;;;;;;5030638;28;20056;-76
2023/10/03 06:11:30;;;;;;;11.10;5.43;;;;;;;;;;5018179;28;20050;-77
2023/10/03 06:13:57;;;;;;;9.25;4.78;;;;;;;;;;5025506;28;20045;-76
2023/10/03 06:16:26;;;;;;;9.40;4.95;;;;;;;;;;5029325;28;20053;-76
2023/10/03 06:18:53;;;;;;;11.30;5.45;;;;;;;;;;5033932;28;20057;-76
2023/10/03 06:21:20;;;;;;;8.57;4.30;;;;;;;;;;5018527;28;20065;-76
2023/10/03 06:23:54;;;;;;;8.30;4.55;;;;;;;;;;5021232;28;20049;-76
2023/10/03 06:26:21;;;;;;;10.73;3.97;;;;;;;;;;5022857;28;20486;-76
2023/10/03 06:28:48;;;;;;;7.82;3.92;;;;;;;;;;5017162;28;20053;-76
2023/10/03 06:31:15;;;;;;;6.45;3.97;;;;;;;;;;5022296;28;20426;-76
2023/10/03 06:33:44;;;;;;;9.48;4.80;;;;;;;;;;5019460;28;20042;-76
2023/10/03 06:36:12;;;;;;;13.10;4.70;;;;;;;;;;5020279;28;20053;-77
2023/10/03 06:38:41;;;;;;;7.93;3.58;;;;;;;;;;5013144;28;20050;-77
2023/10/03 06:41:09;;;;;;;7.65;4.65;;;;;;;;;;5018582;28;20414;-76
2023/10/03 06:43:35;;;;;;;9.65;4.38;;;;;;;;;;5027245;28;20049;-76
2023/10/03 06:46:05;;;;;;;8.73;3.92;;;;;;;;;;5033316;28;20049;-76
2023/10/03 06:48:32;;;;;;;6.53;4.00;;;;;;;;;;5024770;28;20050;-75
2023/10/03 06:51:04;;;;;;;6.95;4.05;;;;;;;;;;5024224;28;20058;-76
2023/10/03 06:53:31;;;;;;;8.35;4.38;;;;;;;;;;5004255;28;20045;-76
2023/10/03 06:55:59;;;;;;;9.15;4.75;;;;;;;;;;5031942;28;20050;-75
2023/10/03 06:58:27;;;;;;;9.02;3.88;;;;;;;;;;5031763;28;20073;-76
2023/10/03 07:00:54;;;;;;;8.00;4.00;;;;;;;;;;5018108;28;20057;-77
2023/10/03 07:03:21;;;;;;;8.02;3.28;;;;;;;;;;5020860;28;20398;-76
2023/10/03 07:05:48;;;;;;;9.88;5.07;;;;;;;;;;5036153;28;20049;-76
2023/10/03 07:08:16;;;;;;;8.57;3.70;;;;;;;;;;5035956;28;20494;-76
2023/10/03 07:10:43;;;;;;;8.60;4.40;;;;;;;;;;5022721;28;20054;-76
2023/10/03 07:13:11;;;;;;;8.23;4.47;;;;;;;;;;5020137;28;20061;-77
2023/10/03 07:15:39;;;;;;;7.88;4.65;;;;;;;;;;5035992;28;20060;-77
2023/10/03 07:18:06;;;;;;;9.43;3.70;;;;;;;;;;5035561;28;20057;-76
2023/10/03 07:20:34;;;;;;;14.85;7.70;;;;;;;;;;5027108;28;20487;-77
2023/10/03 07:23:02;;;;;;;12.97;8.07;;;;;;;;;;5016064;28;20065;-77
2023/10/03 07:25:32;;;;;;;8.35;3.33;;;;;;;;;;5027253;28;20495;-75
2023/10/03 07:27:59;;;;;;;8.23;3.38;;;;;;;;;;5036006;28;20054;-77
2023/10/03 07:30:25;;;;;;;10.25;5.00;;;;;;;;;;5027969;28;20050;-77
2023/10/03 07:32:52;;;;;;;6.05;3.08;;;;;;;;;;5022183;28;20046;-77
2023/10/03 07:35:21;;;;;;;6.07;3.83;;;;;;;;;;5032932;28;20045;-77
2023/10/03 07:37:49;;;;;;;6.85;3.78;;;;;;;;;;5022823;28;20054;-77
2023/10/03 07:40:15;;;;;;;7.28;3.33;;;;;;;;;;5025157;28;20060;-77
2023/10/03 07:42:43;;;;;;;7.72;3.78;;;;;;;;;;5031041;28;20414;-76
2023/10/03 07:45:10;;;;;;;5.80;3.53;;;;;;;;;;5017129;28;20042;-76
2023/10/03 07:47:39;;;;;;;7.95;4.05;;;;;;;;;;5026767;28;20483;-76
2023/10/03 07:50:06;;;;;;;5.95;4.03;;;;;;;;;;5022859;28;20046;-76
2023/10/03 07:52:34;;;;;;;8.68;3.05;;;;;;;;;;5022051;28;20414;-75
2023/10/03 07:55:03;;;;;;;7.82;3.35;;;;;;;;;;5029701;28;20288;-76
2023/10/03 07:57:30;;;;;;;7.00;3.53;;;;;;;;;;5025216;28;20452;-76
2023/10/03 07:59:59;;;;;;;9.18;3.50;;;;;;;;;;5030050;28;20491;-75
2023/10/03 08:02:32;;;;;;;7.32;3.95;;;;;;;;;;5020118;28;20053;-76
2023/10/03 08:05:00;;;;;;;9.32;3.30;;;;;;;;;;5017704;28;20053;-75
2023/10/03 08:07:27;;;;;;;5.63;3.35;;;;;;;;;;5030470;28;20073;-75
2023/10/03 08:09:54;;;;;;;8.18;4.18;;;;;;;;;;5019609;28;20060;-75
2023/10/03 08:12:23;;;;;;;7.03;3.25;;;;;;;;;;5029040;28;20057;-75
2023/10/03 08:14:52;;;;;;;;;;;;;;;;;;5021621;28;20049;-75
2023/10/03 08:17:20;;;;;;;5.55;3.13;;;;;;;;;;5027800;28;20393;-75
2023/10/03 08:19:49;;;;;;;5.85;2.50;;;;;;;;;;5014408;28;20058;-75
2023/10/03 08:22:15;;;;;;;5.03;2.80;;;;;;;;;;5022460;28;20411;-75
2023/10/03 08:24:43;;;;;;;5.93;3.55;;;;;;;;;;5026421;28;20379;-75
2023/10/03 08:27:18;;;;;;;5.20;2.67;;;;;;;;;;5023461;28;20049;-75
2023/10/03 08:29:45;;;;;;;7.13;3.78;;;;;;;;;;5022840;28;20049;-74
2023/10/03 08:32:12;;;;;;;7.70;3.25;;;;;;;;;;5027642;28;20422;-75
2023/10/03 08:34:44;;;;;;;7.20;3.30;;;;;;;;;;5033763;28;20046;-75
2023/10/03 08:37:18;;;;;;;5.90;2.25;;;;;;;;;;5029426;28;20057;-75
2023/10/03 08:39:46;;;;;;;5.63;2.83;;;;;;;;;;5031173;28;20477;-75
2023/10/03 08:42:13;;;;;;;7.57;2.95;;;;;;;;;;5032517;28;20064;-76
2023/10/03 08:44:43;;;;;;;4.47;2.35;;;;;;;;;;5016440;28;20050;-78
2023/10/03 08:47:11;;;;;;;5.38;2.30;;;;;;;;;;5014593;28;20054;-79
2023/10/03 08:49:40;;;;;;;3.90;2.13;;;;;;;;;;5027253;28;20064;-77
2023/10/03 08:52:09;;;;;;;3.50;1.90;;;;;;;;;;5030475;28;20052;-81
2023/10/03 08:54:37;;;;;;;4.85;2.15;;;;;;;;;;5027192;28;20052;-80
2023/10/03 08:57:04;;;;;;;2.92;1.90;;;;;;;;;;5025747;28;20050;-81
2023/10/03 08:59:32;;;;;;;3.55;1.98;;;;;;;;;;5017362;28;20057;-77
2023/10/03 09:02:02;;;;;;;5.07;1.90;;;;;;;;;;5026170;28;20062;-77
2023/10/03 09:04:37;;;;;;;3.95;2.13;;;;;;;;;;5015627;28;20041;-77
2023/10/03 09:07:08;;;;;;;4.22;1.88;;;;;;;;;;5016803;28;20057;-77
2023/10/03 09:09:38;;;;;;;5.47;1.85;;;;;;;;;;5019100;28;20072;-77
2023/10/03 09:12:05;;;;;;;4.10;2.00;;;;;;;;;;5024874;28;20054;-77
2023/10/03 09:14:36;;;;;;;4.60;1.58;;;;;;;;;;5014770;28;20057;-77
2023/10/03 09:17:03;;;;;;;4.50;1.95;;;;;;;;;;5013648;28;20061;-78
2023/10/03 09:19:43;;;;;;;6.18;2.10;;;;;;;;;;5018129;28;20057;-79
2023/10/03 09:22:15;;;;;;;2.83;1.67;;;;;;;;;;5013418;28;20418;-79
2023/10/03 09:24:44;;;;;;;4.60;2.22;;;;;;;;;;5016761;28;20522;-78
2023/10/03 09:27:17;;;;;;;2.83;1.70;;;;;;;;;;5026233;28;20056;-77
2023/10/03 09:29:45;;;;;;;3.97;1.75;;;;;;;;;;5012861;28;20517;-76
2023/10/03 09:32:14;;;;;;;3.83;1.88;;;;;;;;;;5019071;28;20057;-78
2023/10/03 09:34:41;;;;;;;3.38;1.60;;;;;;;;;;5012605;28;20049;-78
2023/10/03 09:37:09;;;;;;;2.95;1.63;;;;;;;;;;5024804;28;20049;-79
2023/10/03 09:39:48;;;;;;;2.47;1.52;;;;;;;;;;5013411;28;20062;-79
2023/10/03 09:42:16;;;;;;;4.38;2.10;;;;;;;;;;5023983;28;20406;-80
2023/10/03 09:44:44;;;;;;;4.18;1.85;;;;;;;;;;5019193;28;20054;-83
2023/10/03 09:47:12;;;;;;;3.20;2.08;;;;;;;;;;5013194;28;20419;-78
2023/10/03 09:49:40;;;;;;;2.25;1.70;;;;;;;;;;5013084;28;20061;-75
2023/10/03 09:52:09;;;;;;;3.05;1.50;;;;;;;;;;5015474;28;20050;-76
2023/10/03 09:54:37;;;;;;;3.00;1.67;;;;;;;;;;5015272;28;20050;-75
2023/10/03 09:57:15;;;;;;;4.13;1.75;;;;;;;;;;5016121;28;20057;-77
2023/10/03 09:59:45;;;;;;;3.70;1.75;;;;;;;;;;5030777;28;20402;-76
2023/10/03 10:02:14;;;;;;;3.55;1.65;;;;;;;;;;5022157;28;20606;-75
2023/10/03 10:04:42;;;;;;;2.83;1.42;;;;;;;;;;5003334;28;20053;-76
2023/10/03 10:07:16;;;;;;;3.35;1.90;;;;;;;;;;5019753;28;20061;-78
2023/10/03 10:09:57;;;;;;;3.25;1.60;;;;;;;;;;5022951;28;20061;-78
2023/10/03 10:12:24;;;;;;;2.40;1.45;;;;;;;;;;5017493;28;20050;-79
2023/10/03 10:15:13;;;;;;;2.38;1.40;;;;;;;;;;5022481;28;20057;-77
2023/10/03 10:17:41;;;;;;;3.40;2.20;;;;;;;;;;5024167;28;20056;-76
2023/10/03 10:20:11;;;;;;;2.63;1.83;;;;;;;;;;5022978;28;20049;-77
2023/10/03 10:22:56;;;;;;;6.30;1.90;;;;;;;;;;5024685;28;20046;-76
2023/10/03 10:25:26;;;;;;;4.00;1.80;;;;;;;;;;5024616;28;20059;-78
2023/10/03 10:28:01;;;;;;;3.95;2.28;;;;;;;;;;5019954;28;20049;-78
2023/10/03 10:30:28;;;;;;;2.65;1.77;;;;;;;;;;5022167;28;20058;-78
2023/10/03 10:33:13;;;;;;;3.45;1.60;;;;;;;;;;5028902;28;20054;-77
2023/10/03 10:35:50;;;;;;;3.38;2.03;;;;;;;;;;5025804;28;20414;-78
2023/10/03 10:38:17;;;;;;;4.88;1.95;;;;;;;;;;5019373;28;20072;-76
2023/10/03 10:40:58;;;;;;;3.20;1.80;;;;;;;;;;5032323;28;20072;-76
2023/10/03 10:43:27;;;;;;;4.32;1.70;;;;;;;;;;5026906;28;20046;-77
2023/10/03 10:46:25;;;;;;;3.40;1.70;;;;;;;;;;5029976;28;20053;-76
2023/10/03 10:48:52;;;;;;;3.22;1.83;;;;;;;;;;5027507;28;20053;-75
2023/10/03 10:51:20;;;;;;;5.05;2.10;;;;;;;;;;5029059;28;20053;-75
2023/10/03 10:53:48;;;;;;;4.05;1.70;;;;;;;;;;5021050;28;20053;-76
2023/10/03 10:56:14;;;;;;;4.40;2.10;;;;;;;;;;5030533;28;20049;-75
2023/10/03 10:58:51;;;;;;;2.58;1.42;;;;;;;;;;5029936;28;20061;-75
2023/10/03 11:01:18;;;;;;;2.78;1.58;;;;;;;;;;5019860;28;20050;-75
2023/10/03 11:03:45;;;;;;;3.55;2.00;;;;;;;;;;5016876;28;20053;-76
2023/10/03 11:06:15;;;;;;;4.35;1.77;;;;;;;;;;5024038;28;20052;-75
2023/10/03 11:08:48;;;;;;;3.97;1.60;;;;;;;;;;5029080;28;20491;-75
2023/10/03 11:11:15;;;;;;;21.42;2.25;;;;;;;;;;5018222;28;20046;-76
2023/10/03 11:13:45;;;;;;;3.53;2.03;;;;;;;;;;5021773;28;20062;-75
2023/10/03 11:16:20;;;;;;;5.35;1.73;;;;;;;;;;5021493;28;20045;-76
2023/10/03 11:18:47;;;;;;;3.42;2.20;;;;;;;;;;5017054;28;20515;-76
2023/10/03 11:21:16;;;;;;;3.53;2.17;;;;;;;;;;5016455;28;20049;-76
2023/10/03 11:24:07;;;;;;;3.65;2.45;;;;;;;;;;5015644;28;20057;-76
2023/10/03 11:26:41;;;;;;;6.40;3.22;;;;;;;;;;5017920;28;20058;-76
2023/10/03 11:29:08;;;;;;;7.95;3.22;;;;;;;;;;5024796;28;20391;-76
2023/10/03 11:31:39;;;;;;;6.10;3.38;;;;;;;;;;5024805;28;20054;-76
2023/10/03 11:34:06;;;;;;;8.73;3.38;;;;;;;;;;5018859;28;20096;-75
2023/10/03 11:36:40;;;;;;;7.65;4.68;;;;;;;;;;5024512;28;20061;-75
2023/10/03 11:39:07;;;;;;;6.13;3.50;;;;;;;;;;5014837;28;20049;-75
2023/10/03 11:41:34;;;;;;;7.60;3.78;;;;;;;;;;5021448;28;20526;-75
2023/10/03 11:44:00;;;;;;;6.50;4.07;;;;;;;;;;5027844;28;20049;-74
2023/10/03 11:46:27;;;;;;;8.75;4.95;;;;;;;;;;5021506;28;20053;-74
2023/10/03 11:48:58;;;;;;;7.65;4.30;;;;;;;;;;5032990;28;20490;-74
2023/10/03 11:51:25;;;;;;;6.85;4.93;;;;;;;;;;5026579;28;20513;-74
2023/10/03 11:53:53;;;;;;;7.60;4.68;;;;;;;;;;5033050;28;20123;-75
2023/10/03 11:56:19;;;;;;;7.15;4.70;;;;;;;;;;5029432;28;20037;-74
2023/10/03 11:58:47;;;;;;;9.00;4.90;;;;;;;;;;5033949;28;20049;-75
2023/10/03 12:01:13;;;;;;;6.85;4.43;;;;;;;;;;5029538;28;20054;-75
2023/10/03 12:03:40;;;;;;;8.10;4.45;;;;;;;;;;5034622;28;20060;-75
2023/10/03 12:06:08;;;;;;;7.25;4.13;;;;;;;;;;5024025;28;20071;-74
2023/10/03 12:08:38;;;;;;;12.38;5.70;;;;;;;;;;5020391;28;20050;-74
2023/10/03 12:11:05;;;;;;;5.45;3.70;;;;;;;;;;5024880;28;20050;-75
2023/10/03 12:13:32;;;;;;;4.60;3.13;;;;;;;;;;5022006;28;20061;-75
2023/10/03 12:15:58;;;;;;;5.45;3.85;;;;;;;;;;5043837;28;20067;-73
2023/10/03 12:18:26;;;;;;;5.43;3.65;;;;;;;;;;5025827;28;20061;-75
2023/10/03 12:20:54;;;;;;;4.50;3.05;;;;;;;;;;5031432;28;20053;-75
2023/10/03 12:23:23;;;;;;;5.07;2.50;;;;;;;;;;5033038;28;20482;-76
2023/10/03 12:25:49;;;;;;;5.30;2.78;;;;;;;;;;5027872;28;20410;-75
2023/10/03 12:28:17;;;;;;;4.78;2.33;;;;;;;;;;5016275;28;20053;-75
2023/10/03 12:30:44;;;;;;;3.65;2.17;;;;;;;;;;5030518;28;20053;-75
2023/10/03 12:33:16;;;;;;;10.90;2.28;;;;;;;;;;5033731;28;20053;-75
2023/10/03 12:35:43;;;;;;;4.80;2.22;;;;;;;;;;5028083;28;20049;-76
2023/10/03 12:38:10;;;;;;;1.90;1.10;;;;;;;;;;5033369;28;20049;-76
2023/10/03 12:40:39;;;;;;;2.00;1.30;;;;;;;;;;5018723;28;20054;-76
2023/10/03 12:43:07;;;;;;;6.15;1.95;;;;;;;;;;5020550;28;20509;-76
2023/10/03 12:45:33;;;;;;;2.00;1.27;;;;;;;;;;5016922;28;20073;-76
2023/10/03 12:48:00;;;;;;;4.82;1.70;;;;;;;;;;5020773;28;20513;-76
2023/10/03 12:50:28;;;;;;;3.05;1.40;;;;;;;;;;5025231;28;20060;-77
2023/10/03 12:52:55;;;;;;;2.75;1.88;;;;;;;;;;5026313;28;20082;-81
2023/10/03 12:55:39;;;;;;;15.88;2.13;;;;;;;;;;5017879;28;20053;-80
2023/10/03 12:58:08;;;;;;;21.60;4.43;;;;;;;;;;5024082;28;20069;-81
2023/10/03 13:00:36;;;;;;;6.60;3.10;;;;;;;;;;5022116;28;20422;-82
2023/10/03 13:03:04;;;;;;;8.20;4.45;;;;;;;;;;5021255;28;20395;-78
2023/10/03 13:05:34;;;;;;;7.10;4.72;;;;;;;;;;5033481;28;20133;-77
2023/10/03 13:08:02;;;;;;;7.72;3.17;;;;;;;;;;5035223;28;20063;-78
2023/10/03 13:10:30;;;;;;;3.67;2.63;;;;;;;;;;5026425;28;20057;-78
2023/10/03 13:12:57;;;;;;;4.65;2.65;;;;;;;;;;5023965;28;20068;-77
2023/10/03 13:15:26;;;;;;;4.15;2.08;;;;;;;;;;5016070;28;20052;-79
2023/10/03 13:17:53;;;;;;;3.42;1.58;;;;;;;;;;5017440;28;20049;-81
2023/10/03 13:20:23;;;;;;;3.90;1.60;;;;;;;;;;5018943;28;20045;-84
2023/10/03 13:22:50;;;;;;;2.20;1.58;;;;;;;;;;5033411;28;20049;-83
2023/10/03 13:25:19;;;;;;;2.78;1.20;;;;;;;;;;5019954;28;20057;-82
2023/10/03 13:27:47;;;;;;;3.08;1.92;;;;;;;;;;5024300;28;20049;-78
2023/10/03 13:30:18;;;;;;;4.20;2.20;;;;;;;;;;5019901;28;20061;-76
2023/10/03 13:32:48;;;;;;;3.30;1.95;;;;;;;;;;5027361;28;20465;-77
2023/10/03 13:35:14;;;;;;;3.08;1.80;;;;;;;;;;5031008;28;20453;-77
2023/10/03 13:37:43;;;;;;;3.20;1.92;;;;;;;;;;5019405;28;20081;-77
2023/10/03 13:40:11;;;;;;;2.50;1.77;;;;;;;;;;5027579;28;20057;-77
2023/10/03 13:42:38;;;;;;;3.00;1.73;;;;;;;;;;5022120;28;21005;-77
2023/10/03 13:45:06;;;;;;;2.78;1.50;;;;;;;;;;5023034;28;20057;-77
2023/10/03 13:47:32;;;;;;;3.28;1.60;;;;;;;;;;5013636;28;20054;-79
2023/10/03 13:50:03;;;;;;;2.53;1.48;;;;;;;;;;5021037;28;20053;-79
2023/10/03 13:52:30;;;;;;;1.50;0.90;;;;;;;;;;5032486;28;20068;-79
2023/10/03 13:54:59;;;;;;;1.10;0.70;;;;;;;;;;5019774;28;20057;-79
2023/10/03 13:57:26;;;;;;;1.20;0.50;;;;;;;;;;5015027;28;20157;-79
2023/10/03 13:59:53;;;;;;;1.13;0.50;;;;;;;;;;5012652;28;20050;-80
2023/10/03 14:02:22;;;;;;;1.67;0.77;;;;;;;;;;5021256;28;20451;-81
2023/10/03 14:04:49;;;;;;;1.52;0.47;;;;;;;;;;5018354;28;20081;-81
2023/10/03 14:07:17;;;;;;;1.23;0.52;;;;;;;;;;5029306;28;20050;-80
2023/10/03 14:09:45;;;;;;;1.55;0.77;;;;;;;;;;5022226;28;20050;-82
2023/10/03 14:12:12;;;;;;;1.92;0.80;;;;;;;;;;5036669;28;20494;-80
2023/10/03 14:14:39;;;;;;;1.17;0.70;;;;;;;;;;5021134;28;20075;-79
2023/10/03 14:17:05;;;;;;;1.75;0.85;;;;;;;;;;5016839;28;20053;-79
2023/10/03 14:19:34;;;;;;;2.10;0.90;;;;;;;;;;5033391;28;20068;-79
2023/10/03 14:22:03;;;;;;;2.47;0.85;;;;;;;;;;5030258;28;20053;-78
2023/10/03 14:24:33;;;;;;;1.40;0.88;;;;;;;;;;5028244;28;20421;-78
2023/10/03 14:27:00;;;;;;;2.42;1.67;;;;;;;;;;5026901;28;20530;-78
2023/10/03 14:29:27;;;;;;;3.00;1.30;;;;;;;;;;5021797;28;20483;-78
2023/10/03 14:31:54;;;;;;;1.65;1.00;;;;;;;;;;5033703;28;20501;-78
2023/10/03 14:34:20;;;;;;;1.75;1.08;;;;;;;;;;5017926;28;20072;-78
2023/10/03 14:36:46;;;;;;;1.73;0.85;;;;;;;;;;5026655;28;20045;-79
2023/10/03 14:39:19;;;;;;;1.42;0.90;;;;;;;;;;5023062;28;20494;-79
2023/10/03 14:41:48;;;;;;;1.33;0.80;;;;;;;;;;5011624;28;20058;-78
2023/10/03 14:44:14;;;;;;;1.25;0.70;;;;;;;;;;5023360;28;20517;-78
2023/10/03 14:46:41;;;;;;;2.05;0.80;;;;;;;;;;5022182;28;20065;-78
2023/10/03 14:49:08;;;;;;;4.35;1.15;;;;;;;;;;5031880;28;20049;-77